Map

Track Data

SID SEASON NUMBER BASIN SUBBASIN NAME ISO_TIME NATURE LAT LON WMO_WIND WMO_PRES WMO_AGENCY TRACK_TYPE DIST2LAND LANDFALL IFLAG USA_AGENCY USA_ATCF_ID USA_LAT USA_LON USA_RECORD USA_STATUS USA_WIND USA_PRES USA_SSHS USA_R34_NE USA_R34_SE USA_R34_SW USA_R34_NW USA_R50_NE USA_R50_SE USA_R50_SW USA_R50_NW USA_R64_NE USA_R64_SE USA_R64_SW USA_R64_NW USA_POCI USA_ROCI USA_RMW USA_EYE TOKYO_LAT TOKYO_LON TOKYO_GRADE TOKYO_WIND TOKYO_PRES TOKYO_R50_DIR TOKYO_R50_LONG TOKYO_R50_SHORT TOKYO_R30_DIR TOKYO_R30_LONG TOKYO_R30_SHORT TOKYO_LAND CMA_LAT CMA_LON CMA_CAT CMA_WIND CMA_PRES HKO_LAT HKO_LON HKO_CAT HKO_WIND HKO_PRES NEWDELHI_LAT NEWDELHI_LON NEWDELHI_GRADE NEWDELHI_WIND NEWDELHI_PRES NEWDELHI_CI NEWDELHI_DP NEWDELHI_POCI REUNION_LAT REUNION_LON REUNION_TYPE REUNION_WIND REUNION_PRES REUNION_TNUM REUNION_CI REUNION_RMW REUNION_R34_NE REUNION_R34_SE REUNION_R34_SW REUNION_R34_NW REUNION_R50_NE REUNION_R50_SE REUNION_R50_SW REUNION_R50_NW REUNION_R64_NE REUNION_R64_SE REUNION_R64_SW REUNION_R64_NW BOM_LAT BOM_LON BOM_TYPE BOM_WIND BOM_PRES BOM_TNUM BOM_CI BOM_RMW BOM_R34_NE BOM_R34_SE BOM_R34_SW BOM_R34_NW BOM_R50_NE BOM_R50_SE BOM_R50_SW BOM_R50_NW BOM_R64_NE BOM_R64_SE BOM_R64_SW BOM_R64_NW BOM_ROCI BOM_POCI BOM_EYE BOM_POS_METHOD BOM_PRES_METHOD NADI_LAT NADI_LON NADI_CAT NADI_WIND NADI_PRES WELLINGTON_LAT WELLINGTON_LON WELLINGTON_WIND WELLINGTON_PRES DS824_LAT DS824_LON DS824_STAGE DS824_WIND DS824_PRES TD9636_LAT TD9636_LON TD9636_STAGE TD9636_WIND TD9636_PRES TD9635_LAT TD9635_LON TD9635_WIND TD9635_PRES TD9635_ROCI NEUMANN_LAT NEUMANN_LON NEUMANN_CLASS NEUMANN_WIND NEUMANN_PRES MLC_LAT MLC_LON MLC_CLASS MLC_WIND MLC_PRES USA_GUST BOM_GUST BOM_GUST_PER REUNION_GUST REUNION_GUST_PER USA_SEAHGT USA_SEARAD_NE USA_SEARAD_SE USA_SEARAD_SW USA_SEARAD_NW STORM_SPEED STORM_DIR
1991241N11329 1991 57 NA NA NOT_NAMED 1991-08-28 12:00:00 TS 10.5000 -30.8000 25 hurdat_atl main 1518 1518 O_____________ hurdat_atl AL051991 10.5000 -30.8000 TD 25 -1 16 277
1991241N11329 1991 57 NA NA NOT_NAMED 1991-08-28 15:00:00 TS 10.5979 -31.5999 main 1597 1597 P_____________ AL051991 10.5979 -31.5999 TD 27 -1 16 277
1991241N11329 1991 57 NA NA NOT_NAMED 1991-08-28 18:00:00 TS 10.7000 -32.4000 30 hurdat_atl main 1677 1677 O_____________ hurdat_atl AL051991 10.7000 -32.4000 TD 30 -1 16 278
1991241N11329 1991 57 NA NA NOT_NAMED 1991-08-28 21:00:00 TS 10.8073 -33.2000 main 1700 1674 P_____________ AL051991 10.8073 -33.2000 TD 30 -1 16 277
1991241N11329 1991 57 NA NA NOT_NAMED 1991-08-29 00:00:00 TS 10.9000 -34.0000 30 hurdat_atl main 1674 1646 O_____________ hurdat_atl AL051991 10.9000 -34.0000 TD 30 -1 16 275
1991241N11329 1991 57 NA NA NOT_NAMED 1991-08-29 03:00:00 TS 10.9497 -34.7927 main 1642 1625 P_____________ AL051991 10.9497 -34.7927 TD 30 -1 16 274
1991241N11329 1991 57 NA NA NOT_NAMED 1991-08-29 06:00:00 TS 11.0000 -35.6000 30 hurdat_atl main 1625 1613 O_____________ hurdat_atl AL051991 11.0000 -35.6000 TD 30 -1 16 275
1991241N11329 1991 57 NA NA NOT_NAMED 1991-08-29 09:00:00 TS 11.0999 -36.4499 main 1613 1603 P_____________ AL051991 11.0999 -36.4499 TD 30 -1 17 277
1991241N11329 1991 57 NA NA NOT_NAMED 1991-08-29 12:00:00 TS 11.2000 -37.3000 30 hurdat_atl main 1603 1592 O_____________ hurdat_atl AL051991 11.2000 -37.3000 TD 30 -1 16 276
1991241N11329 1991 57 NA NA NOT_NAMED 1991-08-29 15:00:00 TS 11.2572 -38.1076 main 1602 1575 P_____________ AL051991 11.2572 -38.1076 TD 30 -1 16 274
1991241N11329 1991 57 NA NA NOT_NAMED 1991-08-29 18:00:00 TS 11.3000 -38.9000 30 hurdat_atl main 1575 1499 O_____________ hurdat_atl AL051991 11.3000 -38.9000 TD 30 -1 16 273
1991241N11329 1991 57 NA NA NOT_NAMED 1991-08-29 21:00:00 TS 11.3498 -39.7000 main 1499 1431 P_____________ AL051991 11.3498 -39.7000 TD 30 -1 16 274
1991241N11329 1991 57 NA NA NOT_NAMED 1991-08-30 00:00:00 TS 11.4000 -40.5000 30 hurdat_atl main 1431 1367 O_____________ hurdat_atl AL051991 11.4000 -40.5000 TD 30 -1 16 273
1991241N11329 1991 57 NA NA NOT_NAMED 1991-08-30 03:00:00 TS 11.4422 -41.2851 main 1358 1295 P_____________ AL051991 11.4422 -41.2851 TD 30 -1 16 274
1991241N11329 1991 57 NA NA NOT_NAMED 1991-08-30 06:00:00 TS 11.5000 -42.1000 30 hurdat_atl main 1295 1234 O_____________ hurdat_atl AL051991 11.5000 -42.1000 TD 30 -1 17 275
1991241N11329 1991 57 NA NA NOT_NAMED 1991-08-30 09:00:00 TS 11.5924 -42.9850 main 1226 1170 P_____________ AL051991 11.5924 -42.9850 TD 30 -1 18 276
1991241N11329 1991 57 NA NA NOT_NAMED 1991-08-30 12:00:00 TS 11.7000 -43.9000 30 hurdat_atl main 1162 1110 O_____________ hurdat_atl AL051991 11.7000 -43.9000 TD 30 -1 18 277
1991241N11329 1991 57 NA NA NOT_NAMED 1991-08-30 15:00:00 TS 11.8071 -44.7925 main 1103 1057 P_____________ AL051991 11.8071 -44.7925 TD 30 -1 18 276
1991241N11329 1991 57 NA NA NOT_NAMED 1991-08-30 18:00:00 TS 11.9000 -45.7000 30 hurdat_atl main 1051 996 O_____________ hurdat_atl AL051991 11.9000 -45.7000 TD 30 -1 18 274
1991241N11329 1991 57 NA NA NOT_NAMED 1991-08-30 21:00:00 TS 11.9420 -46.6203 main 996 945 P_____________ AL051991 11.9420 -46.6203 TD 30 -1 19 273
1991241N11329 1991 57 NA NA NOT_NAMED 1991-08-31 00:00:00 TS 12.0000 -47.6000 30 hurdat_atl main 939 889 O_____________ hurdat_atl AL051991 12.0000 -47.6000 TD 30 -1 20 275
1991241N11329 1991 57 NA NA NOT_NAMED 1991-08-31 03:00:00 TS 12.1265 -48.6178 main 889 854 P_____________ AL051991 12.1265 -48.6178 TD 27 -1 22 278
1991241N11329 1991 57 NA NA NOT_NAMED 1991-08-31 06:00:00 TS 12.3000 -49.8000 25 hurdat_atl main 850 813 O_____________ hurdat_atl AL051991 12.3000 -49.8000 TD 25 -1 26 278
1991241N11329 1991 57 NA NA NOT_NAMED 1991-08-31 09:00:00 TS 12.4973 -51.2268 main 809 776 P_____________ AL051991 12.4973 -51.2268 TD 25 -1 30 278
1991241N11329 1991 57 NA NA NOT_NAMED 1991-08-31 12:00:00 TS 12.7000 -52.8000 25 hurdat_atl main 777 O_____________ hurdat_atl AL051991 12.7000 -52.8000 TD 25 -1 31 278

About IBTrACS Database

This database is a web-friendly format of International Best Track Archive for Climate Stewardship (IBTrACS), a global best track data archive curated by NOAA dating back to 1842.

Updated: 2021-11-26